createdAt,value
2017-09-16T00:02:32.446Z,15.70
2017-09-16T00:05:11.752Z,15.60
2017-09-16T00:07:46.223Z,15.60
2017-09-16T00:10:20.803Z,15.60
2017-09-16T00:12:55.489Z,15.60
2017-09-16T00:15:30.093Z,15.60
2017-09-16T00:18:05.543Z,15.60
2017-09-16T00:20:40.798Z,15.50
2017-09-16T00:23:15.250Z,15.50
2017-09-16T00:25:49.878Z,15.50
2017-09-16T00:28:24.579Z,15.40
2017-09-16T00:30:59.203Z,15.40
2017-09-16T00:33:33.871Z,15.30
2017-09-16T00:36:08.375Z,15.30
2017-09-16T00:38:43.123Z,15.20
2017-09-16T00:41:17.729Z,15.20
2017-09-16T00:43:52.375Z,15.20
2017-09-16T00:46:26.932Z,15.10
2017-09-16T00:49:01.559Z,15.10
2017-09-16T00:51:36.250Z,15.00
2017-09-16T00:54:10.086Z,14.90
2017-09-16T00:56:44.563Z,15.00
2017-09-16T00:59:19.142Z,14.70
2017-09-16T01:01:53.610Z,14.90
2017-09-16T01:04:28.097Z,14.80
2017-09-16T01:07:02.647Z,14.70
2017-09-16T01:09:37.181Z,14.70
2017-09-16T01:12:11.863Z,14.60
2017-09-16T01:14:46.322Z,14.70
2017-09-16T01:17:20.902Z,14.60
2017-09-16T01:19:54.726Z,14.60
2017-09-16T01:22:28.690Z,14.50
2017-09-16T01:25:03.473Z,14.60
2017-09-16T01:27:42.582Z,14.40
2017-09-16T01:30:16.778Z,14.30
2017-09-16T01:32:50.712Z,14.30
2017-09-16T01:35:25.253Z,14.30
2017-09-16T01:37:59.358Z,14.40
2017-09-16T01:40:33.189Z,14.30
2017-09-16T01:43:07.794Z,14.40
2017-09-16T01:45:42.410Z,14.40
2017-09-16T01:48:16.989Z,14.30
2017-09-16T01:50:51.701Z,14.40
2017-09-16T01:53:26.249Z,14.30
2017-09-16T01:56:01.199Z,14.20
2017-09-16T01:58:36.270Z,14.20
2017-09-16T02:01:10.863Z,14.20
2017-09-16T02:03:45.506Z,14.20
2017-09-16T02:06:20.047Z,14.20
2017-09-16T02:08:54.770Z,14.20
2017-09-16T02:11:29.353Z,14.20
2017-09-16T02:14:03.837Z,14.20
2017-09-16T02:16:38.394Z,14.20
2017-09-16T02:19:12.932Z,14.20
2017-09-16T02:21:47.598Z,14.20
2017-09-16T02:24:22.327Z,14.20
2017-09-16T02:26:56.867Z,14.20
2017-09-16T02:29:31.518Z,14.20
2017-09-16T02:32:06.097Z,14.20
2017-09-16T02:34:40.739Z,14.20
2017-09-16T02:37:15.355Z,14.20
2017-09-16T02:39:49.983Z,14.10
2017-09-16T02:42:24.575Z,14.10
2017-09-16T02:44:59.027Z,14.10
2017-09-16T02:47:33.633Z,14.20
2017-09-16T02:50:11.114Z,14.10
2017-09-16T02:52:45.807Z,14.10
2017-09-16T02:55:20.413Z,14.10
2017-09-16T02:57:54.862Z,14.10
2017-09-16T03:00:29.606Z,14.20
2017-09-16T03:03:05.006Z,14.00
2017-09-16T03:05:39.458Z,14.00
2017-09-16T03:08:14.094Z,14.00
2017-09-16T03:10:48.567Z,13.90
2017-09-16T03:13:23.090Z,13.90
2017-09-16T03:15:57.642Z,13.90
2017-09-16T03:18:32.208Z,13.80
2017-09-16T03:21:06.805Z,13.60
2017-09-16T03:23:41.333Z,13.70
2017-09-16T03:26:15.891Z,13.60
2017-09-16T03:28:50.457Z,13.60
2017-09-16T03:31:24.976Z,13.70
2017-09-16T03:33:59.771Z,13.70
2017-09-16T03:36:33.522Z,13.80
2017-09-16T03:39:08.118Z,13.90
2017-09-16T03:41:42.673Z,14.00
2017-09-16T03:44:17.194Z,14.10
2017-09-16T03:46:51.471Z,14.10
2017-09-16T03:49:26.092Z,14.10
2017-09-16T03:52:00.722Z,14.00
2017-09-16T03:54:35.282Z,14.00
2017-09-16T03:57:09.913Z,14.00
2017-09-16T03:59:44.562Z,14.00
2017-09-16T04:02:30.419Z,13.90
2017-09-16T04:07:45.635Z,13.80
2017-09-16T04:10:20.239Z,13.70
2017-09-16T04:12:54.680Z,13.70
2017-09-16T04:15:29.182Z,13.80
2017-09-16T04:18:03.479Z,13.60
2017-09-16T04:20:37.755Z,13.60
2017-09-16T04:23:11.999Z,13.50
2017-09-16T04:25:46.301Z,13.50
2017-09-16T04:28:20.770Z,13.40
2017-09-16T04:30:55.418Z,13.20
2017-09-16T04:33:29.859Z,13.20
2017-09-16T04:36:04.434Z,13.20
2017-09-16T04:38:39.449Z,13.00
2017-09-16T04:41:14.074Z,13.00
2017-09-16T04:43:48.802Z,13.00
2017-09-16T04:46:23.437Z,13.00
2017-09-16T04:48:58.155Z,13.00
2017-09-16T04:51:32.617Z,13.10
2017-09-16T04:54:07.286Z,13.10
2017-09-16T04:56:41.870Z,13.20
2017-09-16T04:59:16.502Z,13.20
2017-09-16T05:01:51.127Z,13.30
2017-09-16T05:04:25.649Z,13.30
2017-09-16T05:07:00.273Z,13.40
2017-09-16T05:09:34.901Z,13.40
2017-09-16T05:12:09.566Z,13.50
2017-09-16T05:14:44.138Z,13.60
2017-09-16T05:17:18.647Z,13.60
2017-09-16T05:19:53.304Z,13.60
2017-09-16T05:22:27.810Z,13.60
2017-09-16T05:25:12.539Z,13.60
2017-09-16T05:27:46.987Z,13.50
2017-09-16T05:30:21.557Z,13.60
2017-09-16T05:32:56.191Z,13.60
2017-09-16T05:35:30.701Z,13.50
2017-09-16T05:38:05.162Z,13.50
2017-09-16T05:40:39.752Z,13.50
2017-09-16T05:43:14.431Z,13.50
2017-09-16T05:45:49.799Z,13.50
2017-09-16T05:48:24.238Z,13.50
2017-09-16T05:50:58.854Z,13.60
2017-09-16T05:53:33.373Z,13.60
2017-09-16T05:56:08.007Z,13.50
2017-09-16T05:58:42.746Z,13.50
2017-09-16T06:01:17.267Z,13.50
2017-09-16T06:03:51.771Z,13.50
2017-09-16T06:06:26.343Z,13.40
2017-09-16T06:09:00.863Z,13.40
2017-09-16T06:11:35.466Z,13.50
2017-09-16T06:14:09.923Z,13.50
2017-09-16T06:16:44.461Z,13.50
2017-09-16T06:19:18.970Z,13.60
2017-09-16T06:21:53.436Z,13.70
2017-09-16T06:24:27.864Z,13.60
2017-09-16T06:27:02.517Z,13.60
2017-09-16T06:29:37.927Z,13.70
2017-09-16T06:32:12.187Z,13.60
2017-09-16T06:34:46.686Z,13.60
2017-09-16T06:37:21.246Z,13.60
2017-09-16T06:39:55.709Z,13.70
2017-09-16T06:42:30.435Z,13.80
2017-09-16T06:45:10.448Z,13.80
2017-09-16T06:47:44.917Z,13.90
2017-09-16T06:50:19.558Z,13.90
2017-09-16T06:52:54.058Z,14.00
2017-09-16T06:55:28.271Z,14.00
2017-09-16T06:58:02.855Z,14.00
2017-09-16T07:00:37.746Z,14.00
2017-09-16T07:03:12.363Z,14.00
2017-09-16T07:05:46.910Z,13.90
2017-09-16T07:08:21.548Z,13.90
2017-09-16T07:10:56.134Z,13.90
2017-09-16T07:13:30.671Z,13.90
2017-09-16T07:16:05.351Z,13.80
2017-09-16T07:18:39.990Z,13.90
2017-09-16T07:21:14.508Z,13.80
2017-09-16T07:23:49.125Z,13.90
2017-09-16T07:26:23.752Z,13.80
2017-09-16T07:28:58.274Z,13.90
2017-09-16T07:31:33.539Z,13.90
2017-09-16T07:34:08.043Z,13.80
2017-09-16T07:36:42.596Z,13.90
2017-09-16T07:39:17.168Z,14.00
2017-09-16T07:41:52.571Z,14.00
2017-09-16T07:44:28.018Z,14.10
2017-09-16T07:47:02.521Z,14.00
2017-09-16T07:49:37.154Z,14.10
2017-09-16T07:52:11.751Z,14.20
2017-09-16T07:54:46.272Z,14.20
2017-09-16T07:57:20.824Z,14.30
2017-09-16T07:59:55.266Z,14.30
2017-09-16T08:02:29.766Z,14.40
2017-09-16T08:07:45.582Z,14.70
2017-09-16T08:10:20.604Z,14.70
2017-09-16T08:12:55.317Z,14.60
2017-09-16T08:15:30.634Z,14.60
2017-09-16T08:18:05.286Z,14.70
2017-09-16T08:20:39.838Z,14.60
2017-09-16T08:23:14.311Z,14.50
2017-09-16T08:25:48.809Z,14.60
2017-09-16T08:28:23.374Z,14.60
2017-09-16T08:30:57.987Z,14.50
2017-09-16T08:33:32.636Z,14.40
2017-09-16T08:36:07.131Z,14.40
2017-09-16T08:38:41.722Z,14.30
2017-09-16T08:41:16.071Z,14.30
2017-09-16T08:43:50.521Z,14.30
2017-09-16T08:46:24.962Z,14.20
2017-09-16T08:48:59.541Z,14.30
2017-09-16T08:51:34.896Z,14.20
2017-09-16T08:54:09.344Z,14.30
2017-09-16T08:56:44.069Z,14.40
2017-09-16T08:59:18.683Z,14.60
2017-09-16T09:01:53.142Z,14.70
2017-09-16T09:04:27.727Z,14.80
2017-09-16T09:07:02.155Z,14.90
2017-09-16T09:09:36.840Z,14.90
2017-09-16T09:12:11.294Z,15.00
2017-09-16T09:14:45.834Z,15.00
2017-09-16T09:17:20.409Z,15.00
2017-09-16T09:19:55.013Z,15.10
2017-09-16T09:22:29.523Z,15.30
2017-09-16T09:25:08.390Z,15.40
2017-09-16T09:27:42.907Z,15.50
2017-09-16T09:30:17.496Z,15.40
2017-09-16T09:32:52.079Z,15.40
2017-09-16T09:35:26.695Z,15.50
2017-09-16T09:38:01.295Z,15.50
2017-09-16T09:40:35.886Z,15.20
2017-09-16T09:43:10.534Z,15.20
2017-09-16T09:45:45.122Z,15.20
2017-09-16T09:48:19.619Z,15.30
2017-09-16T09:50:54.182Z,15.30
2017-09-16T09:53:28.854Z,15.40
2017-09-16T09:56:03.474Z,15.30
2017-09-16T09:58:39.030Z,15.20
2017-09-16T10:01:13.679Z,15.20
2017-09-16T10:03:48.179Z,15.30
2017-09-16T10:06:22.948Z,15.50
2017-09-16T10:08:58.218Z,15.70
2017-09-16T10:11:32.702Z,15.60
2017-09-16T10:14:07.290Z,15.70
2017-09-16T10:16:41.871Z,15.80
2017-09-16T10:19:16.422Z,15.80
2017-09-16T10:21:51.065Z,15.70
2017-09-16T10:24:25.778Z,15.70
2017-09-16T10:27:00.322Z,15.70
2017-09-16T10:29:34.919Z,15.70
2017-09-16T10:32:09.477Z,15.70
2017-09-16T10:34:44.095Z,15.80
2017-09-16T10:37:18.731Z,15.80
2017-09-16T10:39:54.052Z,15.70
2017-09-16T10:42:28.580Z,15.60
2017-09-16T10:45:09.335Z,15.70
2017-09-16T10:47:43.783Z,15.60
2017-09-16T10:50:18.396Z,15.60
2017-09-16T10:52:53.011Z,15.70
2017-09-16T10:55:34.154Z,15.60
2017-09-16T10:58:08.807Z,15.60
2017-09-16T11:00:43.467Z,15.70
2017-09-16T11:03:17.932Z,15.70
2017-09-16T11:05:52.428Z,15.70
2017-09-16T11:08:27.795Z,15.70
2017-09-16T11:11:02.331Z,15.70
2017-09-16T11:13:36.847Z,15.80
2017-09-16T11:16:12.115Z,16.00
2017-09-16T11:18:46.614Z,16.00
2017-09-16T11:21:21.146Z,16.30
2017-09-16T11:23:55.390Z,16.80
2017-09-16T11:26:29.933Z,17.10
2017-09-16T11:29:04.535Z,17.20
2017-09-16T11:31:39.120Z,17.40
2017-09-16T11:34:14.406Z,17.70
2017-09-16T11:36:48.886Z,17.70
2017-09-16T11:39:23.518Z,17.70
2017-09-16T11:41:58.086Z,17.80
2017-09-16T11:44:32.660Z,17.80
2017-09-16T11:47:07.140Z,17.80
2017-09-16T11:49:41.658Z,17.70
2017-09-16T11:52:16.168Z,17.50
2017-09-16T11:54:50.820Z,17.50
2017-09-16T11:57:25.428Z,17.50
2017-09-16T11:59:59.950Z,17.40
2017-09-16T12:02:34.620Z,17.30
2017-09-16T12:05:15.092Z,17.30
2017-09-16T12:07:50.201Z,17.30
2017-09-16T12:10:24.771Z,17.30
2017-09-16T12:12:59.431Z,17.30
2017-09-16T12:15:34.049Z,17.40
2017-09-16T12:18:08.614Z,17.40
2017-09-16T12:20:43.163Z,17.40
2017-09-16T12:23:17.765Z,17.40
2017-09-16T12:25:52.274Z,17.50
2017-09-16T12:28:26.752Z,17.60
2017-09-16T12:31:01.335Z,17.70
2017-09-16T12:33:36.022Z,17.80
2017-09-16T12:36:10.542Z,17.90
2017-09-16T12:38:45.044Z,18.10
2017-09-16T12:41:19.579Z,18.20
2017-09-16T12:43:54.030Z,18.40
2017-09-16T12:46:29.347Z,18.70
2017-09-16T12:49:03.886Z,18.70
2017-09-16T12:51:38.483Z,18.90
2017-09-16T12:54:13.090Z,19.00
2017-09-16T12:56:48.371Z,19.00
2017-09-16T12:59:22.990Z,18.90
2017-09-16T13:01:57.606Z,18.90
2017-09-16T13:04:32.269Z,18.80
2017-09-16T13:07:06.797Z,18.70
2017-09-16T13:09:41.280Z,18.70
2017-09-16T13:12:15.920Z,18.50
2017-09-16T13:14:50.650Z,18.50
2017-09-16T13:17:25.282Z,18.40
2017-09-16T13:19:59.810Z,18.40
2017-09-16T13:22:34.446Z,18.50
2017-09-16T13:25:11.741Z,18.50
2017-09-16T13:27:46.375Z,18.50
2017-09-16T13:30:20.244Z,18.60
2017-09-16T13:32:54.692Z,18.60
2017-09-16T13:35:29.459Z,18.60
2017-09-16T13:38:03.866Z,18.70
2017-09-16T13:40:38.442Z,18.70
2017-09-16T13:43:12.981Z,18.70
2017-09-16T13:45:47.599Z,18.70
2017-09-16T13:48:22.114Z,18.70
2017-09-16T13:50:56.640Z,18.70
2017-09-16T13:53:31.144Z,18.70
2017-09-16T13:56:05.742Z,18.80
2017-09-16T13:58:40.168Z,18.70
2017-09-16T14:01:14.741Z,18.80
2017-09-16T14:03:49.335Z,18.80
2017-09-16T14:06:23.875Z,18.80
2017-09-16T14:08:58.368Z,18.80
2017-09-16T14:11:33.099Z,18.80
2017-09-16T14:14:07.755Z,18.70
2017-09-16T14:16:42.394Z,18.70
2017-09-16T14:19:16.907Z,18.70
2017-09-16T14:21:51.434Z,18.60
2017-09-16T14:24:25.954Z,18.60
2017-09-16T14:27:00.471Z,18.60
2017-09-16T14:29:34.914Z,18.60
2017-09-16T14:32:09.406Z,18.60
2017-09-16T14:34:44.047Z,18.50
2017-09-16T14:37:18.618Z,18.50
2017-09-16T14:39:53.227Z,18.40
2017-09-16T14:42:27.840Z,18.20
2017-09-16T14:45:02.442Z,18.10
2017-09-16T14:47:37.042Z,18.10
2017-09-16T14:50:18.789Z,18.00
2017-09-16T14:52:53.461Z,17.90
2017-09-16T14:55:28.167Z,17.90
2017-09-16T14:58:02.721Z,17.90
2017-09-16T15:00:37.245Z,17.80
2017-09-16T15:03:11.779Z,17.80
2017-09-16T15:05:46.391Z,17.80
2017-09-16T15:08:20.833Z,17.80
2017-09-16T15:10:55.199Z,17.70
2017-09-16T15:13:30.127Z,17.70
2017-09-16T15:16:05.030Z,17.70
2017-09-16T15:18:40.544Z,17.70
2017-09-16T15:21:16.377Z,17.60
2017-09-16T15:23:51.002Z,17.70
2017-09-16T15:26:26.169Z,17.50
2017-09-16T15:29:01.008Z,17.40
2017-09-16T15:31:36.288Z,17.30
2017-09-16T15:34:12.120Z,17.00
2017-09-16T15:36:46.894Z,17.00
2017-09-16T15:39:21.498Z,17.00
2017-09-16T15:41:56.726Z,16.90
2017-09-16T15:44:32.067Z,16.50
2017-09-16T15:47:06.750Z,16.40
2017-09-16T15:49:43.125Z,16.50
2017-09-16T15:52:17.839Z,16.40
2017-09-16T15:54:52.545Z,16.30
2017-09-16T15:57:27.114Z,16.20
2017-09-16T16:00:01.679Z,16.00
2017-09-16T16:02:37.575Z,16.00
2017-09-16T16:05:18.766Z,16.00
2017-09-16T16:07:53.239Z,16.00
2017-09-16T16:10:27.906Z,16.00
2017-09-16T16:13:02.474Z,15.80
2017-09-16T16:15:36.970Z,15.80
2017-09-16T16:18:11.419Z,15.80
2017-09-16T16:20:46.746Z,15.70
2017-09-16T16:23:21.351Z,15.60
2017-09-16T16:25:55.855Z,15.70
2017-09-16T16:28:30.494Z,15.70
2017-09-16T16:31:05.258Z,15.70
2017-09-16T16:33:39.849Z,15.70
2017-09-16T16:36:14.318Z,15.70
2017-09-16T16:38:48.828Z,15.70
2017-09-16T16:41:23.416Z,15.60
2017-09-16T16:43:58.008Z,15.60
2017-09-16T16:46:32.607Z,15.60
2017-09-16T16:49:07.162Z,15.50
2017-09-16T16:51:41.842Z,15.50
2017-09-16T16:54:16.402Z,15.60
2017-09-16T16:56:50.975Z,15.60
2017-09-16T16:59:25.614Z,15.60
2017-09-16T17:02:00.975Z,15.60
2017-09-16T17:04:35.434Z,15.50
2017-09-16T17:07:10.050Z,15.60
2017-09-16T17:09:45.479Z,15.70
2017-09-16T17:12:19.944Z,15.60
2017-09-16T17:14:54.553Z,15.70
2017-09-16T17:17:29.075Z,15.60
2017-09-16T17:20:12.652Z,15.50
2017-09-16T17:22:47.098Z,15.50
2017-09-16T17:25:25.612Z,15.50
2017-09-16T17:28:02.045Z,15.30
2017-09-16T17:30:36.919Z,15.20
2017-09-16T17:33:11.438Z,15.20
2017-09-16T17:35:45.935Z,15.20
2017-09-16T17:38:20.382Z,15.30
2017-09-16T17:40:54.994Z,15.20
2017-09-16T17:46:18.510Z,15.30
2017-09-16T17:48:53.033Z,15.30
2017-09-16T17:51:27.766Z,15.30
2017-09-16T17:54:02.470Z,15.20
2017-09-16T17:56:37.063Z,15.20
2017-09-16T17:59:11.788Z,15.20
2017-09-16T18:01:46.315Z,15.30
2017-09-16T18:04:20.932Z,15.30
2017-09-16T18:06:55.461Z,15.30
2017-09-16T18:09:30.026Z,15.30
2017-09-16T18:12:04.692Z,15.30
2017-09-16T18:14:39.035Z,15.20
2017-09-16T18:17:13.568Z,15.20
2017-09-16T18:19:48.918Z,15.20
2017-09-16T18:22:23.358Z,15.10
2017-09-16T18:24:57.703Z,15.10
2017-09-16T18:27:32.366Z,15.10
2017-09-16T18:30:13.664Z,15.10
2017-09-16T18:32:50.706Z,15.10
2017-09-16T18:35:25.258Z,15.10
2017-09-16T18:37:59.983Z,15.10
2017-09-16T18:40:36.140Z,15.00
2017-09-16T18:43:11.490Z,15.10
2017-09-16T18:45:46.791Z,15.00
2017-09-16T18:48:21.497Z,14.90
2017-09-16T18:50:56.276Z,15.00
2017-09-16T18:53:30.922Z,15.00
2017-09-16T18:56:05.451Z,15.10
2017-09-16T18:58:40.086Z,15.00
2017-09-16T19:01:14.659Z,15.10
2017-09-16T19:03:49.286Z,15.10
2017-09-16T19:06:23.914Z,15.00
2017-09-16T19:08:58.535Z,15.10
2017-09-16T19:11:33.121Z,15.10
2017-09-16T19:14:07.570Z,15.10
2017-09-16T19:16:42.881Z,15.00
2017-09-16T19:19:17.346Z,15.00
2017-09-16T19:21:51.889Z,15.00
2017-09-16T19:24:26.220Z,15.10
2017-09-16T19:27:00.598Z,15.10
2017-09-16T19:29:35.114Z,15.10
2017-09-16T19:32:09.458Z,15.20
2017-09-16T19:34:43.882Z,15.20
2017-09-16T19:37:18.509Z,15.20
2017-09-16T19:39:53.163Z,15.20
2017-09-16T19:42:27.730Z,15.30
2017-09-16T19:45:02.268Z,15.30
2017-09-16T19:47:36.864Z,15.30
2017-09-16T19:50:12.338Z,15.30
2017-09-16T19:52:46.978Z,15.20
2017-09-16T19:55:21.582Z,15.20
2017-09-16T19:57:56.050Z,15.20
2017-09-16T20:00:30.594Z,15.30
2017-09-16T20:03:05.046Z,15.30
2017-09-16T20:05:39.543Z,15.20
2017-09-16T20:08:14.144Z,15.20
2017-09-16T20:10:48.767Z,15.20
2017-09-16T20:13:23.375Z,15.20
2017-09-16T20:15:58.047Z,15.20
2017-09-16T20:18:33.315Z,15.20
2017-09-16T20:21:07.959Z,15.10
2017-09-16T20:23:42.562Z,15.10
2017-09-16T20:26:17.236Z,15.10
2017-09-16T20:28:51.815Z,15.10
2017-09-16T20:31:26.466Z,15.10
2017-09-16T20:34:01.842Z,15.10
2017-09-16T20:36:36.668Z,15.00
2017-09-16T20:39:11.313Z,15.10
2017-09-16T20:41:45.843Z,15.00
2017-09-16T20:44:20.490Z,15.10
2017-09-16T20:46:55.072Z,15.10
2017-09-16T20:49:30.352Z,15.10
2017-09-16T20:52:04.827Z,15.10
2017-09-16T20:54:39.355Z,15.00
2017-09-16T20:57:13.906Z,15.00
2017-09-16T20:59:48.462Z,15.10
2017-09-16T21:02:23.103Z,15.10
2017-09-16T21:04:57.882Z,15.10
2017-09-16T21:07:32.566Z,15.10
2017-09-16T21:10:14.992Z,15.10
2017-09-16T21:12:50.258Z,15.10
2017-09-16T21:15:25.221Z,15.00
2017-09-16T21:17:59.822Z,15.10
2017-09-16T21:20:34.385Z,15.00
2017-09-16T21:23:09.065Z,15.00
2017-09-16T21:25:43.690Z,15.00
2017-09-16T21:28:18.272Z,15.00
2017-09-16T21:30:52.819Z,15.10
2017-09-16T21:33:27.564Z,15.10
2017-09-16T21:36:02.208Z,15.00
2017-09-16T21:38:36.459Z,15.00
2017-09-16T21:41:11.139Z,15.10
2017-09-16T21:43:46.055Z,15.00
2017-09-16T21:46:20.543Z,14.90
2017-09-16T21:48:55.735Z,15.00
2017-09-16T21:51:30.256Z,15.00
2017-09-16T21:54:05.027Z,15.00
2017-09-16T21:56:39.306Z,14.90
2017-09-16T21:59:13.736Z,15.00
2017-09-16T22:01:48.991Z,15.00
2017-09-16T22:04:23.637Z,14.90
2017-09-16T22:06:58.303Z,15.00
2017-09-16T22:09:32.914Z,15.00
2017-09-16T22:12:07.503Z,15.00
2017-09-16T22:14:42.082Z,15.10
2017-09-16T22:17:16.911Z,15.10
2017-09-16T22:19:51.400Z,15.10
2017-09-16T22:22:26.279Z,15.00
2017-09-16T22:25:00.930Z,15.00
2017-09-16T22:27:35.514Z,15.10
2017-09-16T22:30:11.247Z,15.10
2017-09-16T22:32:45.765Z,15.10
2017-09-16T22:35:20.175Z,15.20
2017-09-16T22:37:54.941Z,15.20
2017-09-16T22:40:29.412Z,15.10
2017-09-16T22:43:04.076Z,15.10
2017-09-16T22:45:38.757Z,15.10
2017-09-16T22:48:13.516Z,15.00
2017-09-16T22:50:47.985Z,15.00
2017-09-16T22:53:22.531Z,14.90
2017-09-16T22:55:57.164Z,14.80
2017-09-16T22:58:31.806Z,14.70
2017-09-16T23:01:06.481Z,14.80
2017-09-16T23:03:41.858Z,14.90
2017-09-16T23:06:16.543Z,14.80
2017-09-16T23:08:51.194Z,14.90
2017-09-16T23:11:25.702Z,14.90
2017-09-16T23:14:00.342Z,14.90
2017-09-16T23:16:34.915Z,14.90
2017-09-16T23:19:09.404Z,14.90
2017-09-16T23:21:43.967Z,14.90
2017-09-16T23:24:18.447Z,15.00
2017-09-16T23:26:53.014Z,14.90
2017-09-16T23:29:27.721Z,14.90
2017-09-16T23:32:02.702Z,15.00
2017-09-16T23:34:37.395Z,14.90
2017-09-16T23:37:12.058Z,15.00
2017-09-16T23:39:46.601Z,14.80
2017-09-16T23:42:21.206Z,14.80
2017-09-16T23:44:55.675Z,14.80
2017-09-16T23:47:30.248Z,14.90
2017-09-16T23:50:13.251Z,14.90
2017-09-16T23:52:47.797Z,15.00
2017-09-16T23:55:23.067Z,15.00
2017-09-16T23:57:57.546Z,14.90
